Terminal Aerodrome Forecast
Issued by NWS

Home | Current Version | Previous Version | Graphics & Text | Print | Product List | Glossary On
Versions: 1 2 3 4 5 6 7 8 9 10 11 12 13 14 15 16 17
235
FTUS43 KABR 190527
TAFMBG
TAF
KMBG 190527Z 1906/2006 15007KT P6SM BKN250
     FM191600 16010KT P6SM SKC
     FM200100 16013KT P6SM SKC WS020/20050KT=

USA.gov is the U.S. government's official web portal to all federal, state and local government web resources and services.